BIBA weather

Bakki Airport
Bakki, Southern Region, Iceland

Public forecast

Using degrees Celsius for public forecast. Weather courtesy of forecast.io.

METAR (pilot weather report)

Report is more than 2 hours old.

Closest report is Vestmannaeyjar Airport, 8.8 nm (16.2 km) SSW. Retrieved 2019/04/22 18:00 UTC (2 hours ago):

BIVM 221800Z 13010KT 090V140 9999 SCT035 07/04 Q1002

TAF (pilot weather forecast)

Closest forecast is Reykjavik Airport, 58.9 nm (109.0 km) NW. Retrieved 2019/04/22 21:03 UTC (0 seconds ago):

TAF BIRK 222000Z 2221/2321 VRB02KT 9999 FEW030 SCT045 TX09/2318Z TN02/2306Z BECMG 2306/2309 09010KT BECMG 2311/2314 RA SCT018 BKN025 OVC035 BECMG 2314/2317 10020KT BECMG 2318/2321 12023G33KT